createdAt,value
2023-03-30T00:01:04.585Z,11.73
2023-03-30T00:03:33.796Z,11.78
2023-03-30T00:06:05.612Z,11.78
2023-03-30T00:08:33.641Z,11.78
2023-03-30T00:11:02.340Z,11.79
2023-03-30T00:13:30.981Z,11.85
2023-03-30T00:15:58.913Z,11.88
2023-03-30T00:18:26.567Z,11.86
2023-03-30T00:20:55.526Z,11.85
2023-03-30T00:23:23.438Z,11.86
2023-03-30T00:25:51.310Z,11.81
2023-03-30T00:28:18.930Z,11.87
2023-03-30T00:30:47.922Z,11.86
2023-03-30T00:33:16.250Z,11.80
2023-03-30T00:35:43.956Z,11.81
2023-03-30T00:38:12.976Z,11.82
2023-03-30T00:40:40.850Z,11.84
2023-03-30T00:43:15.331Z,11.83
2023-03-30T00:45:42.985Z,11.93
2023-03-30T00:48:11.903Z,11.93
2023-03-30T00:50:41.905Z,11.93
2023-03-30T00:53:16.258Z,11.87
2023-03-30T00:55:45.590Z,11.86
2023-03-30T00:58:14.346Z,11.95
2023-03-30T01:00:43.377Z,11.98
2023-03-30T01:03:17.559Z,11.96
2023-03-30T01:05:46.188Z,11.95
2023-03-30T01:08:16.603Z,12.04
2023-03-30T01:10:45.051Z,12.08
2023-03-30T01:13:13.464Z,12.06
2023-03-30T01:15:48.868Z,12.04
2023-03-30T01:18:28.591Z,12.09
2023-03-30T01:21:37.802Z,12.12
2023-03-30T01:24:27.656Z,12.11
2023-03-30T01:26:57.807Z,12.13
2023-03-30T01:29:34.372Z,12.14
2023-03-30T01:32:35.942Z,12.10
2023-03-30T01:35:42.192Z,12.06
2023-03-30T01:38:46.637Z,12.10
2023-03-30T01:41:20.073Z,12.20
2023-03-30T01:43:51.185Z,12.14
2023-03-30T01:46:25.339Z,12.14
2023-03-30T01:49:00.789Z,12.14
2023-03-30T01:51:32.532Z,12.09
2023-03-30T01:54:03.193Z,12.01
2023-03-30T01:56:34.151Z,11.97
2023-03-30T01:59:06.753Z,11.94
2023-03-30T02:01:38.012Z,11.95
2023-03-30T02:04:07.184Z,11.94
2023-03-30T02:06:38.982Z,11.96
2023-03-30T02:09:07.561Z,12.01
2023-03-30T02:11:38.287Z,12.01
2023-03-30T02:14:07.065Z,11.98
2023-03-30T02:16:38.599Z,11.99
2023-03-30T02:19:07.797Z,12.02
2023-03-30T02:21:36.041Z,12.07
2023-03-30T02:24:05.241Z,12.10
2023-03-30T02:26:34.032Z,12.16
2023-03-30T02:29:03.100Z,12.21
2023-03-30T02:31:31.491Z,12.17
2023-03-30T02:34:09.596Z,12.22
2023-03-30T02:36:51.048Z,12.27
2023-03-30T02:39:27.326Z,12.28
2023-03-30T02:42:06.341Z,12.27
2023-03-30T02:44:44.089Z,12.23
2023-03-30T02:47:14.865Z,12.20
2023-03-30T02:49:55.442Z,12.18
2023-03-30T02:52:34.093Z,12.14
2023-03-30T02:55:09.024Z,12.03
2023-03-30T02:57:46.558Z,11.93
2023-03-30T03:00:18.653Z,11.89
2023-03-30T03:02:50.568Z,11.84
2023-03-30T03:05:18.652Z,11.76
2023-03-30T03:07:48.154Z,11.73
2023-03-30T03:10:15.915Z,11.70
2023-03-30T03:12:44.799Z,11.67
2023-03-30T03:15:13.955Z,11.63
2023-03-30T03:17:45.361Z,11.57
2023-03-30T03:20:13.755Z,11.52
2023-03-30T03:22:41.389Z,11.48
2023-03-30T03:25:10.349Z,11.41
2023-03-30T03:27:37.973Z,11.36
2023-03-30T03:30:06.085Z,11.19
2023-03-30T03:32:33.757Z,11.14
2023-03-30T03:35:02.818Z,11.08
2023-03-30T03:37:30.459Z,11.05
2023-03-30T03:39:58.113Z,10.84
2023-03-30T03:42:25.842Z,10.80
2023-03-30T03:44:53.504Z,10.80
2023-03-30T03:47:23.027Z,10.68
2023-03-30T03:49:50.708Z,10.67
2023-03-30T03:52:19.693Z,10.62
2023-03-30T03:54:47.339Z,10.67
2023-03-30T03:57:15.153Z,10.56
2023-03-30T03:59:42.876Z,10.52
2023-03-30T04:02:10.980Z,10.52
2023-03-30T04:04:38.742Z,10.47
2023-03-30T04:07:06.616Z,10.51
2023-03-30T04:09:35.672Z,10.56
2023-03-30T04:12:03.306Z,10.55
2023-03-30T04:14:31.124Z,10.55
2023-03-30T04:16:58.824Z,10.51
2023-03-30T04:19:27.671Z,10.46
2023-03-30T04:21:55.507Z,10.47
2023-03-30T04:24:23.461Z,10.49
2023-03-30T04:26:52.557Z,10.47
2023-03-30T04:29:21.000Z,10.42
2023-03-30T04:31:50.953Z,10.38
2023-03-30T04:34:21.913Z,10.43
2023-03-30T04:36:49.571Z,10.45
2023-03-30T04:39:18.127Z,10.46
2023-03-30T04:41:47.102Z,10.45
2023-03-30T04:44:20.392Z,10.41
2023-03-30T04:46:47.983Z,10.37
2023-03-30T04:49:15.700Z,10.35
2023-03-30T04:51:43.332Z,10.32
2023-03-30T04:54:11.027Z,10.33
2023-03-30T04:56:38.627Z,10.35
2023-03-30T04:59:06.269Z,10.35
2023-03-30T05:01:35.298Z,10.38
2023-03-30T05:04:02.934Z,10.40
2023-03-30T05:06:30.881Z,10.41
2023-03-30T05:08:58.467Z,10.43
2023-03-30T05:11:26.161Z,10.45
2023-03-30T05:13:54.223Z,10.47
2023-03-30T05:16:22.614Z,10.50
2023-03-30T05:18:51.949Z,10.50
2023-03-30T05:21:19.548Z,10.51
2023-03-30T05:23:47.163Z,10.50
2023-03-30T05:26:14.815Z,10.50
2023-03-30T05:28:43.118Z,10.51
2023-03-30T05:31:10.853Z,10.47
2023-03-30T05:33:38.450Z,10.47
2023-03-30T05:36:08.405Z,10.45
2023-03-30T05:38:36.072Z,10.41
2023-03-30T05:41:05.091Z,10.40
2023-03-30T05:43:33.035Z,10.35
2023-03-30T05:46:01.423Z,10.36
2023-03-30T05:48:29.524Z,10.38
2023-03-30T05:50:57.459Z,10.38
2023-03-30T05:53:26.636Z,10.36
2023-03-30T05:55:54.245Z,10.42
2023-03-30T05:58:21.830Z,10.42
2023-03-30T06:00:49.760Z,10.42
2023-03-30T06:03:17.507Z,10.43
2023-03-30T06:05:45.623Z,10.47
2023-03-30T06:08:13.678Z,10.49
2023-03-30T06:10:42.715Z,10.49
2023-03-30T06:13:10.310Z,10.50
2023-03-30T06:15:38.146Z,10.50
2023-03-30T06:18:06.009Z,10.50
2023-03-30T06:20:33.755Z,10.49
2023-03-30T06:23:01.713Z,10.52
2023-03-30T06:25:29.678Z,10.51
2023-03-30T06:27:58.958Z,10.45
2023-03-30T06:30:26.815Z,10.41
2023-03-30T06:32:54.935Z,10.40
2023-03-30T06:35:22.944Z,10.33
2023-03-30T06:37:50.589Z,10.34
2023-03-30T06:40:19.061Z,10.33
2023-03-30T06:42:47.011Z,10.31
2023-03-30T06:45:16.957Z,10.27
2023-03-30T06:47:44.621Z,10.26
2023-03-30T06:50:13.402Z,10.26
2023-03-30T06:52:41.289Z,10.29
2023-03-30T06:55:09.416Z,10.32
2023-03-30T06:57:37.128Z,10.34
2023-03-30T07:00:10.212Z,10.43
2023-03-30T07:02:39.295Z,10.48
2023-03-30T07:05:08.178Z,10.55
2023-03-30T07:07:36.048Z,10.64
2023-03-30T07:10:09.885Z,10.72
2023-03-30T07:12:37.714Z,10.74
2023-03-30T07:15:07.220Z,10.82
2023-03-30T07:17:35.088Z,10.86
2023-03-30T07:20:05.731Z,10.95
2023-03-30T07:22:33.457Z,11.04
2023-03-30T07:25:01.160Z,11.04
2023-03-30T07:27:29.181Z,11.05
2023-03-30T07:30:00.732Z,11.09
2023-03-30T07:32:32.739Z,11.13
2023-03-30T07:35:00.479Z,11.09
2023-03-30T07:37:29.765Z,11.12
2023-03-30T07:39:57.458Z,11.13
2023-03-30T07:42:25.496Z,11.08
2023-03-30T07:44:53.146Z,11.05
2023-03-30T07:47:20.881Z,11.09
2023-03-30T07:49:48.487Z,11.11
2023-03-30T07:52:16.485Z,11.16
2023-03-30T07:54:45.507Z,11.16
2023-03-30T07:57:13.712Z,11.22
2023-03-30T07:59:41.617Z,11.24
2023-03-30T08:02:12.217Z,11.32
2023-03-30T08:04:40.137Z,11.39
2023-03-30T08:07:07.971Z,11.46
2023-03-30T08:09:35.876Z,11.54
2023-03-30T08:12:05.287Z,11.60
2023-03-30T08:14:32.856Z,11.71
2023-03-30T08:17:00.685Z,11.76
2023-03-30T08:19:28.734Z,11.81
2023-03-30T08:21:57.233Z,11.86
2023-03-30T08:24:24.929Z,11.91
2023-03-30T08:26:52.533Z,12.02
2023-03-30T08:29:21.897Z,12.01
2023-03-30T08:31:49.510Z,12.06
2023-03-30T08:34:17.178Z,12.14
2023-03-30T08:36:44.817Z,12.16
2023-03-30T08:39:12.498Z,12.21
2023-03-30T08:41:54.202Z,12.32
2023-03-30T08:44:33.825Z,12.39
2023-03-30T08:47:02.551Z,12.46
2023-03-30T08:49:31.343Z,12.53
2023-03-30T08:52:02.972Z,12.63
2023-03-30T08:54:31.688Z,12.67
2023-03-30T08:57:03.594Z,12.72
2023-03-30T08:59:38.582Z,12.76
2023-03-30T09:02:15.392Z,12.77
2023-03-30T09:04:57.015Z,12.87
2023-03-30T09:07:27.362Z,12.96
2023-03-30T09:09:56.312Z,13.08
2023-03-30T09:12:34.176Z,13.27
2023-03-30T09:15:07.605Z,13.50
2023-03-30T09:17:38.310Z,13.67
2023-03-30T09:20:10.217Z,13.86
2023-03-30T09:22:40.790Z,14.07
2023-03-30T09:25:17.213Z,14.31
2023-03-30T09:27:51.012Z,14.50
2023-03-30T09:30:22.167Z,14.68
2023-03-30T09:32:57.709Z,14.87
2023-03-30T09:35:30.351Z,15.00
2023-03-30T09:37:58.113Z,15.11
2023-03-30T09:40:35.446Z,15.19
2023-03-30T09:43:10.199Z,15.33
2023-03-30T09:45:39.971Z,15.40
2023-03-30T09:48:09.250Z,15.43
2023-03-30T09:50:39.214Z,15.44
2023-03-30T09:53:10.058Z,15.46
2023-03-30T09:55:38.439Z,15.50
2023-03-30T09:58:19.573Z,15.54
2023-03-30T10:01:03.048Z,15.58
2023-03-30T10:03:30.984Z,15.69
2023-03-30T10:06:07.544Z,15.86
2023-03-30T10:08:41.767Z,15.99
2023-03-30T10:11:09.589Z,16.19
2023-03-30T10:13:38.776Z,16.29
2023-03-30T10:16:10.230Z,16.34
2023-03-30T10:18:41.587Z,16.34
2023-03-30T10:21:18.662Z,16.30
2023-03-30T10:23:48.337Z,16.24
2023-03-30T10:26:19.241Z,16.21
2023-03-30T10:28:54.205Z,16.16
2023-03-30T10:31:25.646Z,16.08
2023-03-30T10:33:57.088Z,15.96
2023-03-30T10:36:27.868Z,15.99
2023-03-30T10:38:55.483Z,15.97
2023-03-30T10:41:24.405Z,15.97
2023-03-30T10:43:52.825Z,15.86
2023-03-30T10:46:23.201Z,15.63
2023-03-30T10:49:00.053Z,15.49
2023-03-30T10:51:37.369Z,15.43
2023-03-30T10:54:10.511Z,15.34
2023-03-30T10:56:40.863Z,15.35
2023-03-30T10:59:32.060Z,15.16
2023-03-30T11:02:19.879Z,14.97
2023-03-30T11:04:51.414Z,14.92
2023-03-30T11:07:26.643Z,14.72
2023-03-30T11:09:56.407Z,14.31
2023-03-30T11:12:27.080Z,14.27
2023-03-30T11:14:58.875Z,14.27
2023-03-30T11:17:28.794Z,14.14
2023-03-30T11:20:00.192Z,13.96
2023-03-30T11:22:33.607Z,13.87
2023-03-30T11:25:02.212Z,13.63
2023-03-30T11:27:33.418Z,13.60
2023-03-30T11:30:05.451Z,13.55
2023-03-30T11:32:39.381Z,13.55
2023-03-30T11:35:13.868Z,13.48
2023-03-30T11:37:47.399Z,13.51
2023-03-30T11:40:18.505Z,13.47
2023-03-30T11:42:47.369Z,13.22
2023-03-30T11:45:22.424Z,13.20
2023-03-30T11:48:07.052Z,13.17
2023-03-30T11:50:45.703Z,13.00
2023-03-30T11:53:24.249Z,12.17
2023-03-30T11:56:07.895Z,12.01
2023-03-30T11:58:37.247Z,11.80
2023-03-30T12:01:14.427Z,11.35
2023-03-30T12:03:43.787Z,11.42
2023-03-30T12:06:29.035Z,11.27
2023-03-30T12:09:05.080Z,11.30
2023-03-30T12:11:38.208Z,11.39
2023-03-30T12:14:15.921Z,11.40
2023-03-30T12:16:46.766Z,11.40
2023-03-30T12:19:17.530Z,11.42
2023-03-30T12:21:52.942Z,11.34
2023-03-30T12:24:24.673Z,11.38
2023-03-30T12:27:04.571Z,11.42
2023-03-30T12:32:25.185Z,11.43
2023-03-30T12:34:54.863Z,11.39
2023-03-30T12:37:26.524Z,11.41
2023-03-30T12:39:57.541Z,11.38
2023-03-30T12:42:34.704Z,11.37
2023-03-30T12:45:21.780Z,11.30
2023-03-30T12:48:10.399Z,11.25
2023-03-30T12:50:42.902Z,11.12
2023-03-30T12:53:27.211Z,11.06
2023-03-30T12:56:01.857Z,11.09
2023-03-30T12:58:48.952Z,11.07
2023-03-30T13:01:22.555Z,11.00
2023-03-30T13:03:52.553Z,10.95
2023-03-30T13:06:25.759Z,10.85
2023-03-30T13:08:58.935Z,10.75
2023-03-30T13:11:26.567Z,10.70
2023-03-30T13:13:56.894Z,10.64
2023-03-30T13:16:47.939Z,10.61
2023-03-30T13:19:22.737Z,10.64
2023-03-30T13:21:57.209Z,10.65
2023-03-30T13:24:37.850Z,10.67
2023-03-30T13:27:22.772Z,10.50
2023-03-30T13:29:54.341Z,10.53
2023-03-30T13:32:28.913Z,10.50
2023-03-30T13:35:07.387Z,10.58
2023-03-30T13:38:05.432Z,10.57
2023-03-30T13:40:48.524Z,10.62
2023-03-30T13:43:36.689Z,10.62
2023-03-30T13:46:16.883Z,10.59
2023-03-30T13:48:55.775Z,10.63
2023-03-30T13:51:27.270Z,10.71
2023-03-30T13:53:57.760Z,10.73
2023-03-30T13:56:27.982Z,10.73
2023-03-30T13:59:00.638Z,10.74
2023-03-30T14:01:28.360Z,10.74
2023-03-30T14:03:56.578Z,10.82
2023-03-30T14:06:27.311Z,10.84
2023-03-30T14:09:06.427Z,10.88
2023-03-30T14:11:37.209Z,10.92
2023-03-30T14:14:05.804Z,10.93
2023-03-30T14:16:35.654Z,10.93
2023-03-30T14:19:13.545Z,10.95
2023-03-30T14:21:44.493Z,10.98
2023-03-30T14:24:14.941Z,10.97
2023-03-30T14:26:44.102Z,10.97
2023-03-30T14:29:24.613Z,10.99
2023-03-30T14:32:08.297Z,11.05
2023-03-30T14:34:37.443Z,11.11
2023-03-30T14:37:06.690Z,11.17
2023-03-30T14:39:39.724Z,11.22
2023-03-30T14:42:16.557Z,11.24
2023-03-30T14:44:45.932Z,11.26
2023-03-30T14:47:13.741Z,11.24
2023-03-30T14:49:43.427Z,11.25
2023-03-30T14:52:16.737Z,11.22
2023-03-30T14:54:54.489Z,11.23
2023-03-30T14:57:37.734Z,11.27
2023-03-30T15:00:13.283Z,11.21
2023-03-30T15:02:42.399Z,11.19
2023-03-30T15:05:10.680Z,11.16
2023-03-30T15:07:38.616Z,11.17
2023-03-30T15:10:07.261Z,11.13
2023-03-30T15:12:38.128Z,11.05
2023-03-30T15:15:08.713Z,11.05
2023-03-30T15:17:37.855Z,11.03
2023-03-30T15:20:07.098Z,11.01
2023-03-30T15:22:36.316Z,10.96
2023-03-30T15:25:06.446Z,10.96
2023-03-30T15:27:36.309Z,10.96
2023-03-30T15:30:04.898Z,10.99
2023-03-30T15:32:36.151Z,10.97
2023-03-30T15:35:09.201Z,10.94
2023-03-30T15:37:37.100Z,10.99
2023-03-30T15:40:29.814Z,10.96
2023-03-30T15:43:25.124Z,11.01
2023-03-30T15:45:54.521Z,10.98
2023-03-30T15:48:24.975Z,10.95
2023-03-30T15:50:55.719Z,10.97
2023-03-30T15:53:33.769Z,11.00
2023-03-30T15:56:01.550Z,11.02
2023-03-30T15:58:30.730Z,11.05
2023-03-30T16:00:58.581Z,11.13
2023-03-30T16:03:35.051Z,11.20
2023-03-30T16:06:02.725Z,11.26
2023-03-30T16:08:30.323Z,11.30
2023-03-30T16:10:58.688Z,11.30
2023-03-30T16:13:26.312Z,11.31
2023-03-30T16:15:55.641Z,11.32
2023-03-30T16:18:23.261Z,11.32
2023-03-30T16:20:50.903Z,11.32
2023-03-30T16:23:19.062Z,11.33
2023-03-30T16:25:47.165Z,11.31
2023-03-30T16:28:17.488Z,11.31
2023-03-30T16:30:47.522Z,11.27
2023-03-30T16:33:16.539Z,11.26
2023-03-30T16:35:44.274Z,11.25
2023-03-30T16:38:13.539Z,11.23
2023-03-30T16:40:43.023Z,11.22
2023-03-30T16:43:11.287Z,11.18
2023-03-30T16:45:39.453Z,11.12
2023-03-30T16:48:07.581Z,11.07
2023-03-30T16:50:38.714Z,10.99
2023-03-30T16:53:07.326Z,10.97
2023-03-30T16:55:34.922Z,10.95
2023-03-30T16:58:02.655Z,10.93
2023-03-30T17:00:31.644Z,10.87
2023-03-30T17:02:59.345Z,10.86
2023-03-30T17:05:27.046Z,10.80
2023-03-30T17:07:56.470Z,10.81
2023-03-30T17:10:26.539Z,10.82
2023-03-30T17:12:55.102Z,10.82
2023-03-30T17:15:24.154Z,10.80
2023-03-30T17:17:52.297Z,10.79
2023-03-30T17:20:24.460Z,10.79
2023-03-30T17:22:52.054Z,10.72
2023-03-30T17:25:23.464Z,10.70
2023-03-30T17:27:52.245Z,10.67
2023-03-30T17:30:23.468Z,10.65
2023-03-30T17:32:51.508Z,10.69
2023-03-30T17:35:19.685Z,10.68
2023-03-30T17:37:47.357Z,10.68
2023-03-30T17:40:22.255Z,10.66
2023-03-30T17:42:50.133Z,10.65
2023-03-30T17:45:19.348Z,10.67
2023-03-30T17:47:47.749Z,10.64
2023-03-30T17:50:21.996Z,10.64
2023-03-30T17:52:50.022Z,10.59
2023-03-30T17:55:18.846Z,10.63
2023-03-30T17:57:48.140Z,10.62
2023-03-30T18:00:22.676Z,10.60
2023-03-30T18:02:50.910Z,10.56
2023-03-30T18:05:19.750Z,10.53
2023-03-30T18:07:47.505Z,10.46
2023-03-30T18:10:23.288Z,10.45
2023-03-30T18:12:53.049Z,10.48
2023-03-30T18:15:22.636Z,10.51
2023-03-30T18:17:50.347Z,10.49
2023-03-30T18:20:23.743Z,10.49
2023-03-30T18:22:51.791Z,10.47
2023-03-30T18:25:31.475Z,10.42
2023-03-30T18:28:01.659Z,10.43
2023-03-30T18:30:31.097Z,10.37
2023-03-30T18:32:59.141Z,10.36
2023-03-30T18:35:28.745Z,10.31
2023-03-30T18:37:56.923Z,10.19
2023-03-30T18:40:27.122Z,10.17
2023-03-30T18:42:54.961Z,10.10
2023-03-30T18:45:26.769Z,9.98
2023-03-30T18:47:54.767Z,9.91
2023-03-30T18:50:24.840Z,9.85
2023-03-30T18:52:52.440Z,9.82
2023-03-30T18:55:20.055Z,9.79
2023-03-30T18:57:47.699Z,9.75
2023-03-30T19:00:21.671Z,9.73
2023-03-30T19:02:51.776Z,9.69
2023-03-30T19:05:20.979Z,9.60
2023-03-30T19:07:48.832Z,9.56
2023-03-30T19:10:17.690Z,9.51
2023-03-30T19:12:45.630Z,9.50
2023-03-30T19:15:19.551Z,9.45
2023-03-30T19:17:47.506Z,9.41
2023-03-30T19:20:17.484Z,9.37
2023-03-30T19:22:45.088Z,9.36
2023-03-30T19:25:13.909Z,9.35
2023-03-30T19:27:51.946Z,9.33
2023-03-30T19:30:29.450Z,9.32
2023-03-30T19:32:58.701Z,9.28
2023-03-30T19:35:28.109Z,9.30
2023-03-30T19:37:56.466Z,9.30
2023-03-30T19:40:24.931Z,9.32
2023-03-30T19:42:52.879Z,9.30
2023-03-30T19:45:22.948Z,9.34
2023-03-30T19:47:50.869Z,9.38
2023-03-30T19:50:20.245Z,9.37
2023-03-30T19:52:50.721Z,9.31
2023-03-30T19:55:22.136Z,9.34
2023-03-30T19:57:50.072Z,9.31
2023-03-30T20:00:19.749Z,9.28
2023-03-30T20:02:49.064Z,9.28
2023-03-30T20:05:17.503Z,9.21
2023-03-30T20:07:45.706Z,9.23
2023-03-30T20:10:16.930Z,9.23
2023-03-30T20:12:44.619Z,9.23
2023-03-30T20:15:12.780Z,9.21
2023-03-30T20:17:42.275Z,9.21
2023-03-30T20:20:12.654Z,9.20
2023-03-30T20:22:41.934Z,9.18
2023-03-30T20:25:11.276Z,9.15
2023-03-30T20:27:40.437Z,9.14
2023-03-30T20:30:09.496Z,9.13
2023-03-30T20:32:39.115Z,9.08
2023-03-30T20:35:08.351Z,9.06
2023-03-30T20:37:36.184Z,9.03
2023-03-30T20:40:04.964Z,8.98
2023-03-30T20:42:32.676Z,8.96
2023-03-30T20:45:01.922Z,8.96
2023-03-30T20:47:31.328Z,8.94
2023-03-30T20:49:59.368Z,8.92
2023-03-30T20:52:27.113Z,8.85
2023-03-30T20:54:56.276Z,8.83
2023-03-30T20:57:24.812Z,8.80
2023-03-30T20:59:54.118Z,8.79
2023-03-30T21:02:23.564Z,8.77
2023-03-30T21:04:53.012Z,8.75
2023-03-30T21:07:24.643Z,8.75
2023-03-30T21:09:52.390Z,8.71
2023-03-30T21:12:20.178Z,8.69
2023-03-30T21:14:47.857Z,8.73
2023-03-30T21:17:15.642Z,8.75
2023-03-30T21:19:44.713Z,8.76
2023-03-30T21:22:12.394Z,8.79
2023-03-30T21:24:40.085Z,8.82
2023-03-30T21:27:07.730Z,8.83
2023-03-30T21:29:35.358Z,8.83
2023-03-30T21:32:03.049Z,8.87
2023-03-30T21:34:30.723Z,8.85
2023-03-30T21:36:59.763Z,8.88
2023-03-30T21:39:27.758Z,8.91
2023-03-30T21:41:55.720Z,8.94
2023-03-30T21:44:23.466Z,8.95
2023-03-30T21:46:51.065Z,8.96
2023-03-30T21:49:18.739Z,8.97
2023-03-30T21:51:46.839Z,8.96
2023-03-30T21:54:16.134Z,8.95
2023-03-30T21:56:44.193Z,8.93
2023-03-30T21:59:11.894Z,8.87
2023-03-30T22:01:39.929Z,8.85
2023-03-30T22:04:07.735Z,8.80
2023-03-30T22:06:35.472Z,8.76
2023-03-30T22:09:03.117Z,8.73
2023-03-30T22:11:32.141Z,8.70
2023-03-30T22:13:59.759Z,8.62
2023-03-30T22:16:31.161Z,8.58
2023-03-30T22:18:59.031Z,8.53
2023-03-30T22:21:29.179Z,8.57
2023-03-30T22:23:56.868Z,8.59
2023-03-30T22:26:24.544Z,8.60
2023-03-30T22:28:53.552Z,8.64
2023-03-30T22:31:21.403Z,8.63
2023-03-30T22:33:49.419Z,8.64
2023-03-30T22:36:18.847Z,8.66
2023-03-30T22:38:46.868Z,8.67
2023-03-30T22:41:14.546Z,8.67
2023-03-30T22:43:42.253Z,8.70
2023-03-30T22:46:11.936Z,8.67
2023-03-30T22:48:41.492Z,8.65
2023-03-30T22:51:09.480Z,8.62
2023-03-30T22:53:38.564Z,8.60
2023-03-30T22:56:07.637Z,8.65
2023-03-30T22:58:36.327Z,8.63
2023-03-30T23:01:05.979Z,8.61
2023-03-30T23:03:35.071Z,8.60
2023-03-30T23:06:02.812Z,8.60
2023-03-30T23:08:30.991Z,8.60
2023-03-30T23:11:04.087Z,8.54
2023-03-30T23:13:32.038Z,8.43
2023-03-30T23:16:00.208Z,8.45
2023-03-30T23:18:27.854Z,8.44
2023-03-30T23:20:57.985Z,8.46
2023-03-30T23:23:25.920Z,8.49
2023-03-30T23:25:54.061Z,8.48
2023-03-30T23:28:21.668Z,8.45
2023-03-30T23:30:49.325Z,8.39
2023-03-30T23:33:17.441Z,8.33
2023-03-30T23:35:50.778Z,8.34
2023-03-30T23:38:19.996Z,8.33
2023-03-30T23:40:47.637Z,8.38
2023-03-30T23:43:15.423Z,8.41
2023-03-30T23:45:43.664Z,8.46
2023-03-30T23:48:11.296Z,8.49
2023-03-30T23:50:38.936Z,8.51
2023-03-30T23:53:07.009Z,8.57
2023-03-30T23:55:36.054Z,8.59
2023-03-30T23:58:03.715Z,8.60
